sensor_id;sensor_type;location;lat;lon;timestamp;pressure;altitude;pressure_sealevel;temperature
42673;BMP280;28284;46.514;30.724;2023-05-19T00:02:23;100857.88;;;19.20
42673;BMP280;28284;46.514;30.724;2023-05-19T00:04:49;100852.19;;;19.15
42673;BMP280;28284;46.514;30.724;2023-05-19T00:07:18;100854.56;;;19.13
42673;BMP280;28284;46.514;30.724;2023-05-19T00:09:46;100860.22;;;19.06
42673;BMP280;28284;46.514;30.724;2023-05-19T00:12:12;100856.78;;;19.02
42673;BMP280;28284;46.514;30.724;2023-05-19T00:14:37;100854.81;;;19.02
42673;BMP280;28284;46.514;30.724;2023-05-19T00:17:03;100850.94;;;19.00
42673;BMP280;28284;46.514;30.724;2023-05-19T00:19:28;100852.25;;;18.95
42673;BMP280;28284;46.514;30.724;2023-05-19T00:21:56;100855.06;;;18.92
42673;BMP280;28284;46.514;30.724;2023-05-19T00:24:21;100853.16;;;18.89
42673;BMP280;28284;46.514;30.724;2023-05-19T00:26:47;100849.66;;;18.88
42673;BMP280;28284;46.514;30.724;2023-05-19T00:29:12;100855.56;;;18.87
42673;BMP280;28284;46.514;30.724;2023-05-19T00:31:42;100856.75;;;18.86
42673;BMP280;28284;46.514;30.724;2023-05-19T00:34:07;100849.41;;;18.83
42673;BMP280;28284;46.514;30.724;2023-05-19T00:36:32;100852.97;;;18.80
42673;BMP280;28284;46.514;30.724;2023-05-19T00:38:58;100857.69;;;18.79
42673;BMP280;28284;46.514;30.724;2023-05-19T00:41:23;100861.56;;;18.82
42673;BMP280;28284;46.514;30.724;2023-05-19T00:43:49;100859.19;;;18.84
42673;BMP280;28284;46.514;30.724;2023-05-19T00:46:14;100861.91;;;18.84
42673;BMP280;28284;46.514;30.724;2023-05-19T00:48:40;100855.66;;;18.83
42673;BMP280;28284;46.514;30.724;2023-05-19T00:51:08;100860.63;;;18.88
42673;BMP280;28284;46.514;30.724;2023-05-19T00:53:34;100872.22;;;18.96
42673;BMP280;28284;46.514;30.724;2023-05-19T00:56:00;100863.47;;;19.01
42673;BMP280;28284;46.514;30.724;2023-05-19T00:58:25;100866.91;;;19.05
42673;BMP280;28284;46.514;30.724;2023-05-19T01:00:57;100872.31;;;19.08
42673;BMP280;28284;46.514;30.724;2023-05-19T01:03:31;100875.41;;;19.10
42673;BMP280;28284;46.514;30.724;2023-05-19T01:05:58;100879.28;;;19.13
42673;BMP280;28284;46.514;30.724;2023-05-19T01:08:33;100872.25;;;19.12
42673;BMP280;28284;46.514;30.724;2023-05-19T01:10:59;100884.34;;;19.14
42673;BMP280;28284;46.514;30.724;2023-05-19T01:13:25;100883.41;;;19.21
42673;BMP280;28284;46.514;30.724;2023-05-19T01:16:03;100881.69;;;19.27
42673;BMP280;28284;46.514;30.724;2023-05-19T01:21:23;100874.41;;;19.36
42673;BMP280;28284;46.514;30.724;2023-05-19T01:23:51;100878.22;;;19.38
42673;BMP280;28284;46.514;30.724;2023-05-19T01:29:14;100883.66;;;19.42
42673;BMP280;28284;46.514;30.724;2023-05-19T01:31:41;100870.69;;;19.42
42673;BMP280;28284;46.514;30.724;2023-05-19T01:34:06;100870.28;;;19.44
42673;BMP280;28284;46.514;30.724;2023-05-19T01:36:33;100876.97;;;19.43
42673;BMP280;28284;46.514;30.724;2023-05-19T01:39:00;100878.59;;;19.40
42673;BMP280;28284;46.514;30.724;2023-05-19T01:41:26;100877.88;;;19.36
42673;BMP280;28284;46.514;30.724;2023-05-19T01:43:53;100882.00;;;19.29
42673;BMP280;28284;46.514;30.724;2023-05-19T01:46:18;100877.91;;;19.21
42673;BMP280;28284;46.514;30.724;2023-05-19T01:48:45;100885.44;;;19.17
42673;BMP280;28284;46.514;30.724;2023-05-19T01:51:11;100883.66;;;19.10
42673;BMP280;28284;46.514;30.724;2023-05-19T01:53:36;100886.13;;;19.05
42673;BMP280;28284;46.514;30.724;2023-05-19T01:56:01;100892.81;;;19.04
42673;BMP280;28284;46.514;30.724;2023-05-19T02:09:08;100887.69;;;19.53
42673;BMP280;28284;46.514;30.724;2023-05-19T02:11:36;100892.31;;;19.56
42673;BMP280;28284;46.514;30.724;2023-05-19T02:14:05;100890.78;;;19.55
42673;BMP280;28284;46.514;30.724;2023-05-19T02:16:32;100901.44;;;19.53
42673;BMP280;28284;46.514;30.724;2023-05-19T02:18:57;100898.75;;;19.50
42673;BMP280;28284;46.514;30.724;2023-05-19T02:21:23;100901.09;;;19.51
42673;BMP280;28284;46.514;30.724;2023-05-19T02:23:49;100904.19;;;19.53
42673;BMP280;28284;46.514;30.724;2023-05-19T02:26:14;100911.88;;;19.58
42673;BMP280;28284;46.514;30.724;2023-05-19T02:28:39;100908.28;;;19.61
42673;BMP280;28284;46.514;30.724;2023-05-19T02:31:05;100912.84;;;19.68
42673;BMP280;28284;46.514;30.724;2023-05-19T02:33:33;100904.81;;;19.73
42673;BMP280;28284;46.514;30.724;2023-05-19T02:35:58;100902.59;;;19.84
42673;BMP280;28284;46.514;30.724;2023-05-19T02:38:23;100907.44;;;19.93
42673;BMP280;28284;46.514;30.724;2023-05-19T02:40:50;100907.78;;;19.95
42673;BMP280;28284;46.514;30.724;2023-05-19T02:43:16;100909.97;;;19.99
42673;BMP280;28284;46.514;30.724;2023-05-19T02:45:41;100921.03;;;20.12
42673;BMP280;28284;46.514;30.724;2023-05-19T02:48:06;100914.13;;;20.36
42673;BMP280;28284;46.514;30.724;2023-05-19T02:50:31;100916.66;;;20.43
42673;BMP280;28284;46.514;30.724;2023-05-19T02:52:57;100914.03;;;20.52
42673;BMP280;28284;46.514;30.724;2023-05-19T02:55:22;100904.78;;;20.58
42673;BMP280;28284;46.514;30.724;2023-05-19T02:57:47;100906.25;;;20.62
42673;BMP280;28284;46.514;30.724;2023-05-19T03:00:13;100915.81;;;20.70
42673;BMP280;28284;46.514;30.724;2023-05-19T03:02:38;100917.81;;;20.82
42673;BMP280;28284;46.514;30.724;2023-05-19T03:05:05;100911.25;;;20.92
42673;BMP280;28284;46.514;30.724;2023-05-19T03:07:31;100917.03;;;21.07
42673;BMP280;28284;46.514;30.724;2023-05-19T03:09:57;100926.50;;;21.18
42673;BMP280;28284;46.514;30.724;2023-05-19T03:12:22;100930.72;;;21.35
42673;BMP280;28284;46.514;30.724;2023-05-19T03:14:48;100940.34;;;21.64
42673;BMP280;28284;46.514;30.724;2023-05-19T03:17:13;100937.56;;;22.19
42673;BMP280;28284;46.514;30.724;2023-05-19T03:19:39;100937.81;;;22.55
42673;BMP280;28284;46.514;30.724;2023-05-19T03:22:05;100935.59;;;22.71
42673;BMP280;28284;46.514;30.724;2023-05-19T03:24:30;100951.94;;;23.44
42673;BMP280;28284;46.514;30.724;2023-05-19T03:26:56;100949.06;;;24.10
42673;BMP280;28284;46.514;30.724;2023-05-19T03:29:21;100940.66;;;24.87
42673;BMP280;28284;46.514;30.724;2023-05-19T03:31:47;100948.47;;;25.67
42673;BMP280;28284;46.514;30.724;2023-05-19T03:34:12;100963.06;;;26.48
42673;BMP280;28284;46.514;30.724;2023-05-19T03:36:38;100963.06;;;27.17
42673;BMP280;28284;46.514;30.724;2023-05-19T03:39:06;100970.22;;;27.88
42673;BMP280;28284;46.514;30.724;2023-05-19T03:41:32;100973.13;;;28.60
42673;BMP280;28284;46.514;30.724;2023-05-19T03:43:57;100973.53;;;29.42
42673;BMP280;28284;46.514;30.724;2023-05-19T03:46:22;100982.81;;;30.18
42673;BMP280;28284;46.514;30.724;2023-05-19T03:48:48;100994.13;;;30.86
42673;BMP280;28284;46.514;30.724;2023-05-19T03:51:13;100985.97;;;30.93
42673;BMP280;28284;46.514;30.724;2023-05-19T03:53:38;100993.47;;;30.36
42673;BMP280;28284;46.514;30.724;2023-05-19T03:56:05;100999.47;;;29.53
42673;BMP280;28284;46.514;30.724;2023-05-19T03:58:31;101003.88;;;28.71
42673;BMP280;28284;46.514;30.724;2023-05-19T04:00:56;101003.28;;;28.00
42673;BMP280;28284;46.514;30.724;2023-05-19T04:03:22;100991.84;;;27.33
42673;BMP280;28284;46.514;30.724;2023-05-19T04:05:47;100992.91;;;26.82
42673;BMP280;28284;46.514;30.724;2023-05-19T04:08:12;100980.69;;;26.45
42673;BMP280;28284;46.514;30.724;2023-05-19T04:10:37;100979.72;;;26.19
42673;BMP280;28284;46.514;30.724;2023-05-19T04:13:03;100979.75;;;26.34
42673;BMP280;28284;46.514;30.724;2023-05-19T04:15:28;100990.06;;;26.62
42673;BMP280;28284;46.514;30.724;2023-05-19T04:17:54;100991.31;;;27.49
42673;BMP280;28284;46.514;30.724;2023-05-19T04:20:19;100987.56;;;28.59
42673;BMP280;28284;46.514;30.724;2023-05-19T04:22:45;100994.44;;;29.68
42673;BMP280;28284;46.514;30.724;2023-05-19T04:25:10;100992.91;;;30.76
42673;BMP280;28284;46.514;30.724;2023-05-19T04:27:35;101011.66;;;31.88
42673;BMP280;28284;46.514;30.724;2023-05-19T04:30:03;101014.13;;;32.79
42673;BMP280;28284;46.514;30.724;2023-05-19T04:32:29;101012.19;;;33.66
42673;BMP280;28284;46.514;30.724;2023-05-19T04:34:55;101017.44;;;34.44
42673;BMP280;28284;46.514;30.724;2023-05-19T04:37:20;101024.84;;;35.19
42673;BMP280;28284;46.514;30.724;2023-05-19T04:39:45;101041.31;;;36.01
42673;BMP280;28284;46.514;30.724;2023-05-19T04:42:12;101054.53;;;36.62
42673;BMP280;28284;46.514;30.724;2023-05-19T04:44:37;101056.09;;;37.05
42673;BMP280;28284;46.514;30.724;2023-05-19T04:47:04;101049.66;;;37.05
42673;BMP280;28284;46.514;30.724;2023-05-19T04:49:30;101050.34;;;37.55
42673;BMP280;28284;46.514;30.724;2023-05-19T04:51:56;101052.25;;;37.82
42673;BMP280;28284;46.514;30.724;2023-05-19T04:54:22;101056.41;;;38.11
42673;BMP280;28284;46.514;30.724;2023-05-19T04:56:47;101061.09;;;38.31
42673;BMP280;28284;46.514;30.724;2023-05-19T04:59:12;101076.63;;;38.76
42673;BMP280;28284;46.514;30.724;2023-05-19T05:01:37;101066.91;;;39.33
42673;BMP280;28284;46.514;30.724;2023-05-19T05:04:04;101074.25;;;39.84
42673;BMP280;28284;46.514;30.724;2023-05-19T05:06:29;101074.94;;;39.19
42673;BMP280;28284;46.514;30.724;2023-05-19T05:08:55;101079.78;;;38.26
42673;BMP280;28284;46.514;30.724;2023-05-19T05:11:21;101069.03;;;37.01
42673;BMP280;28284;46.514;30.724;2023-05-19T05:13:46;101061.56;;;36.13
42673;BMP280;28284;46.514;30.724;2023-05-19T05:16:12;101060.75;;;35.52
42673;BMP280;28284;46.514;30.724;2023-05-19T05:18:37;101064.31;;;35.72
42673;BMP280;28284;46.514;30.724;2023-05-19T05:21:03;101059.56;;;35.80
42673;BMP280;28284;46.514;30.724;2023-05-19T05:23:28;101058.78;;;36.00
42673;BMP280;28284;46.514;30.724;2023-05-19T05:25:54;101059.03;;;36.09
42673;BMP280;28284;46.514;30.724;2023-05-19T05:28:20;101051.41;;;35.56
42673;BMP280;28284;46.514;30.724;2023-05-19T05:30:45;101043.94;;;35.00
42673;BMP280;28284;46.514;30.724;2023-05-19T05:33:11;101045.72;;;34.77
42673;BMP280;28284;46.514;30.724;2023-05-19T05:35:36;101048.16;;;35.53
42673;BMP280;28284;46.514;30.724;2023-05-19T05:38:01;101047.88;;;35.76
42673;BMP280;28284;46.514;30.724;2023-05-19T05:40:27;101059.88;;;36.73
42673;BMP280;28284;46.514;30.724;2023-05-19T05:42:52;101066.38;;;37.53
42673;BMP280;28284;46.514;30.724;2023-05-19T05:45:20;101062.25;;;37.98
42673;BMP280;28284;46.514;30.724;2023-05-19T05:47:45;101070.75;;;37.91
42673;BMP280;28284;46.514;30.724;2023-05-19T05:50:11;101065.22;;;37.48
42673;BMP280;28284;46.514;30.724;2023-05-19T05:52:36;101070.25;;;37.27
42673;BMP280;28284;46.514;30.724;2023-05-19T05:55:03;101074.13;;;38.04
42673;BMP280;28284;46.514;30.724;2023-05-19T05:57:29;101074.41;;;38.67
42673;BMP280;28284;46.514;30.724;2023-05-19T05:59:59;101085.03;;;39.37
42673;BMP280;28284;46.514;30.724;2023-05-19T06:02:25;101089.97;;;40.02
42673;BMP280;28284;46.514;30.724;2023-05-19T06:04:51;101081.84;;;40.56
42673;BMP280;28284;46.514;30.724;2023-05-19T06:07:18;101094.50;;;41.15
42673;BMP280;28284;46.514;30.724;2023-05-19T06:09:43;101104.38;;;41.76
42673;BMP280;28284;46.514;30.724;2023-05-19T06:12:08;101102.03;;;42.00
42673;BMP280;28284;46.514;30.724;2023-05-19T06:14:34;101100.28;;;42.33
42673;BMP280;28284;46.514;30.724;2023-05-19T06:16:59;101113.44;;;42.85
42673;BMP280;28284;46.514;30.724;2023-05-19T06:19:24;101110.31;;;43.20
42673;BMP280;28284;46.514;30.724;2023-05-19T06:21:50;101111.72;;;43.40
42673;BMP280;28284;46.514;30.724;2023-05-19T06:24:15;101112.13;;;43.76
42673;BMP280;28284;46.514;30.724;2023-05-19T06:26:41;101102.53;;;44.13
42673;BMP280;28284;46.514;30.724;2023-05-19T06:29:06;101107.03;;;44.16
42673;BMP280;28284;46.514;30.724;2023-05-19T06:31:31;101111.81;;;43.81
42673;BMP280;28284;46.514;30.724;2023-05-19T06:33:57;101108.72;;;42.89
42673;BMP280;28284;46.514;30.724;2023-05-19T06:36:22;101101.91;;;41.63
42673;BMP280;28284;46.514;30.724;2023-05-19T06:38:48;101103.97;;;40.58
42673;BMP280;28284;46.514;30.724;2023-05-19T06:41:13;101099.50;;;39.73
42673;BMP280;28284;46.514;30.724;2023-05-19T06:43:38;101103.78;;;38.94
42673;BMP280;28284;46.514;30.724;2023-05-19T06:46:04;101098.09;;;38.10
42673;BMP280;28284;46.514;30.724;2023-05-19T06:48:29;101099.16;;;37.41
42673;BMP280;28284;46.514;30.724;2023-05-19T06:50:54;101087.59;;;37.24
42673;BMP280;28284;46.514;30.724;2023-05-19T06:53:20;101087.66;;;36.89
42673;BMP280;28284;46.514;30.724;2023-05-19T06:55:45;101090.47;;;37.46
42673;BMP280;28284;46.514;30.724;2023-05-19T06:58:14;101087.09;;;37.40
42673;BMP280;28284;46.514;30.724;2023-05-19T07:00:39;101097.16;;;37.14
42673;BMP280;28284;46.514;30.724;2023-05-19T07:03:05;101092.31;;;36.86
42673;BMP280;28284;46.514;30.724;2023-05-19T07:05:30;101095.94;;;36.59
42673;BMP280;28284;46.514;30.724;2023-05-19T07:07:56;101097.13;;;36.43
42673;BMP280;28284;46.514;30.724;2023-05-19T07:10:21;101088.56;;;36.29
42673;BMP280;28284;46.514;30.724;2023-05-19T07:12:46;101092.38;;;36.38
42673;BMP280;28284;46.514;30.724;2023-05-19T07:15:11;101101.03;;;36.40
42673;BMP280;28284;46.514;30.724;2023-05-19T07:17:37;101095.81;;;36.44
42673;BMP280;28284;46.514;30.724;2023-05-19T07:20:02;101091.16;;;36.27
42673;BMP280;28284;46.514;30.724;2023-05-19T07:22:30;101098.25;;;35.59
42673;BMP280;28284;46.514;30.724;2023-05-19T07:24:59;101099.88;;;34.26
42673;BMP280;28284;46.514;30.724;2023-05-19T07:27:24;101084.75;;;33.07
42673;BMP280;28284;46.514;30.724;2023-05-19T07:29:49;101083.75;;;32.57
42673;BMP280;28284;46.514;30.724;2023-05-19T07:32:15;101077.44;;;32.51
42673;BMP280;28284;46.514;30.724;2023-05-19T07:34:40;101077.00;;;32.71
42673;BMP280;28284;46.514;30.724;2023-05-19T07:37:05;101078.72;;;32.74
42673;BMP280;28284;46.514;30.724;2023-05-19T07:39:32;101075.03;;;32.37
42673;BMP280;28284;46.514;30.724;2023-05-19T07:41:58;101081.25;;;32.24
42673;BMP280;28284;46.514;30.724;2023-05-19T07:44:23;101062.69;;;32.16
42673;BMP280;28284;46.514;30.724;2023-05-19T07:46:48;101069.00;;;31.47
42673;BMP280;28284;46.514;30.724;2023-05-19T07:49:13;101053.06;;;31.15
42673;BMP280;28284;46.514;30.724;2023-05-19T07:51:39;101054.59;;;31.16
42673;BMP280;28284;46.514;30.724;2023-05-19T07:54:05;101063.09;;;30.78
42673;BMP280;28284;46.514;30.724;2023-05-19T07:56:32;101057.00;;;30.52
42673;BMP280;28284;46.514;30.724;2023-05-19T07:58:57;101052.16;;;30.58
42673;BMP280;28284;46.514;30.724;2023-05-19T08:01:24;101058.50;;;30.64
42673;BMP280;28284;46.514;30.724;2023-05-19T08:03:50;101071.25;;;30.54
42673;BMP280;28284;46.514;30.724;2023-05-19T08:06:15;101051.94;;;30.29
42673;BMP280;28284;46.514;30.724;2023-05-19T08:08:40;101032.31;;;29.85
42673;BMP280;28284;46.514;30.724;2023-05-19T08:11:06;101061.16;;;29.55
42673;BMP280;28284;46.514;30.724;2023-05-19T08:13:31;101077.25;;;29.24
42673;BMP280;28284;46.514;30.724;2023-05-19T08:15:56;101073.03;;;28.98
42673;BMP280;28284;46.514;30.724;2023-05-19T08:18:26;101052.28;;;28.68
42673;BMP280;28284;46.514;30.724;2023-05-19T08:20:51;101069.78;;;28.43
42673;BMP280;28284;46.514;30.724;2023-05-19T08:23:17;101069.59;;;28.22
42673;BMP280;28284;46.514;30.724;2023-05-19T08:25:42;101058.91;;;28.20
42673;BMP280;28284;46.514;30.724;2023-05-19T08:28:08;101082.75;;;28.21
42673;BMP280;28284;46.514;30.724;2023-05-19T08:30:33;101078.25;;;28.29
42673;BMP280;28284;46.514;30.724;2023-05-19T08:32:58;101074.91;;;28.25
42673;BMP280;28284;46.514;30.724;2023-05-19T08:35:24;101066.56;;;28.25
42673;BMP280;28284;46.514;30.724;2023-05-19T08:37:49;101088.19;;;28.61
42673;BMP280;28284;46.514;30.724;2023-05-19T08:40:15;101069.59;;;28.83
42673;BMP280;28284;46.514;30.724;2023-05-19T08:42:41;101072.78;;;29.01
42673;BMP280;28284;46.514;30.724;2023-05-19T08:45:07;101067.78;;;29.11
42673;BMP280;28284;46.514;30.724;2023-05-19T08:47:32;101077.25;;;29.24
42673;BMP280;28284;46.514;30.724;2023-05-19T08:50:01;101081.94;;;29.54
42673;BMP280;28284;46.514;30.724;2023-05-19T08:52:32;101071.38;;;29.69
42673;BMP280;28284;46.514;30.724;2023-05-19T08:55:02;101074.09;;;29.58
42673;BMP280;28284;46.514;30.724;2023-05-19T08:57:28;101076.47;;;29.23
42673;BMP280;28284;46.514;30.724;2023-05-19T08:59:54;101067.75;;;29.05
42673;BMP280;28284;46.514;30.724;2023-05-19T09:02:20;101070.22;;;28.98
42673;BMP280;28284;46.514;30.724;2023-05-19T09:04:46;101067.19;;;29.01
42673;BMP280;28284;46.514;30.724;2023-05-19T09:07:12;101057.34;;;29.06
42673;BMP280;28284;46.514;30.724;2023-05-19T09:09:38;101057.81;;;28.99
42673;BMP280;28284;46.514;30.724;2023-05-19T09:12:07;101058.88;;;29.07
42673;BMP280;28284;46.514;30.724;2023-05-19T09:14:32;101057.69;;;29.19
42673;BMP280;28284;46.514;30.724;2023-05-19T09:16:58;101063.75;;;29.22
42673;BMP280;28284;46.514;30.724;2023-05-19T09:19:25;101054.13;;;29.23
42673;BMP280;28284;46.514;30.724;2023-05-19T09:21:59;101063.06;;;29.27
42673;BMP280;28284;46.514;30.724;2023-05-19T09:24:27;101042.97;;;29.23
42673;BMP280;28284;46.514;30.724;2023-05-19T09:26:53;101051.69;;;29.36
42673;BMP280;28284;46.514;30.724;2023-05-19T09:29:19;101044.88;;;29.43
42673;BMP280;28284;46.514;30.724;2023-05-19T09:34:14;101043.09;;;29.51
42673;BMP280;28284;46.514;30.724;2023-05-19T09:36:39;101043.09;;;29.45
42673;BMP280;28284;46.514;30.724;2023-05-19T09:39:17;101034.94;;;29.36
42673;BMP280;28284;46.514;30.724;2023-05-19T09:41:42;101041.00;;;29.29
42673;BMP280;28284;46.514;30.724;2023-05-19T09:44:24;101026.75;;;29.22
42673;BMP280;28284;46.514;30.724;2023-05-19T09:46:56;101032.38;;;29.33
42673;BMP280;28284;46.514;30.724;2023-05-19T09:49:27;101028.59;;;29.36
42673;BMP280;28284;46.514;30.724;2023-05-19T09:51:54;101026.09;;;29.49
42673;BMP280;28284;46.514;30.724;2023-05-19T09:54:20;101018.03;;;29.62
42673;BMP280;28284;46.514;30.724;2023-05-19T09:56:50;101019.81;;;29.70
42673;BMP280;28284;46.514;30.724;2023-05-19T09:59:15;101010.72;;;29.75
42673;BMP280;28284;46.514;30.724;2023-05-19T10:01:41;101010.72;;;29.75
42673;BMP280;28284;46.514;30.724;2023-05-19T10:04:11;101014.97;;;29.70
42673;BMP280;28284;46.514;30.724;2023-05-19T10:06:37;101003.78;;;29.60
42673;BMP280;28284;46.514;30.724;2023-05-19T10:09:02;101003.53;;;29.52
42673;BMP280;28284;46.514;30.724;2023-05-19T10:11:28;100998.69;;;29.47
42673;BMP280;28284;46.514;30.724;2023-05-19T10:13:54;101000.47;;;29.50
42673;BMP280;28284;46.514;30.724;2023-05-19T10:16:19;100998.97;;;29.55
42673;BMP280;28284;46.514;30.724;2023-05-19T10:18:45;100993.66;;;29.67
42673;BMP280;28284;46.514;30.724;2023-05-19T10:21:11;100986.31;;;29.70
42673;BMP280;28284;46.514;30.724;2023-05-19T10:23:37;100990.88;;;29.73
42673;BMP280;28284;46.514;30.724;2023-05-19T10:26:02;100980.22;;;29.77
42673;BMP280;28284;46.514;30.724;2023-05-19T10:28:33;100989.63;;;29.85
42673;BMP280;28284;46.514;30.724;2023-05-19T10:30:59;100982.78;;;29.80
42673;BMP280;28284;46.514;30.724;2023-05-19T10:33:33;100982.50;;;29.84
42673;BMP280;28284;46.514;30.724;2023-05-19T10:38:52;100990.19;;;30.11
42673;BMP280;28284;46.514;30.724;2023-05-19T10:46:26;100984.84;;;30.13
42673;BMP280;28284;46.514;30.724;2023-05-19T10:48:53;100985.84;;;30.04
42673;BMP280;28284;46.514;30.724;2023-05-19T10:51:18;100980.78;;;29.97
42673;BMP280;28284;46.514;30.724;2023-05-19T10:53:43;100971.38;;;29.95
42673;BMP280;28284;46.514;30.724;2023-05-19T10:56:10;100976.47;;;30.02
42673;BMP280;28284;46.514;30.724;2023-05-19T10:58:37;100982.56;;;30.06
42673;BMP280;28284;46.514;30.724;2023-05-19T11:01:06;100968.59;;;30.06
42673;BMP280;28284;46.514;30.724;2023-05-19T11:03:39;100972.91;;;30.07
42673;BMP280;28284;46.514;30.724;2023-05-19T11:06:16;100967.06;;;30.05
42673;BMP280;28284;46.514;30.724;2023-05-19T11:08:41;100963.72;;;30.06
42673;BMP280;28284;46.514;30.724;2023-05-19T11:11:14;100968.06;;;30.13
42673;BMP280;28284;46.514;30.724;2023-05-19T11:13:41;100980.00;;;30.13
42673;BMP280;28284;46.514;30.724;2023-05-19T11:16:07;100979.00;;;30.00
42673;BMP280;28284;46.514;30.724;2023-05-19T11:18:33;100982.25;;;29.71
42673;BMP280;28284;46.514;30.724;2023-05-19T11:20:59;100978.91;;;29.51
42673;BMP280;28284;46.514;30.724;2023-05-19T11:23:26;100988.00;;;29.40
42673;BMP280;28284;46.514;30.724;2023-05-19T11:25:51;100993.56;;;29.29
42673;BMP280;28284;46.514;30.724;2023-05-19T11:28:19;100988.38;;;29.06
42673;BMP280;28284;46.514;30.724;2023-05-19T11:30:47;100996.63;;;28.84
42673;BMP280;28284;46.514;30.724;2023-05-19T11:33:15;100986.41;;;28.76
42673;BMP280;28284;46.514;30.724;2023-05-19T11:35:44;100985.66;;;28.75
42673;BMP280;28284;46.514;30.724;2023-05-19T11:38:09;100994.50;;;28.74
42673;BMP280;28284;46.514;30.724;2023-05-19T11:40:35;100972.16;;;28.69
42673;BMP280;28284;46.514;30.724;2023-05-19T11:43:00;100963.78;;;28.69
42673;BMP280;28284;46.514;30.724;2023-05-19T11:45:26;100944.00;;;28.61
42673;BMP280;28284;46.514;30.724;2023-05-19T11:47:53;100966.19;;;28.45
42673;BMP280;28284;46.514;30.724;2023-05-19T11:50:18;100976.94;;;28.26
42673;BMP280;28284;46.514;30.724;2023-05-19T11:52:44;100969.53;;;27.73
42673;BMP280;28284;46.514;30.724;2023-05-19T11:55:17;100988.78;;;27.51
42673;BMP280;28284;46.514;30.724;2023-05-19T11:58:16;100975.97;;;27.39
42673;BMP280;28284;46.514;30.724;2023-05-19T12:00:36;101003.13;;;27.24
42673;BMP280;28284;46.514;30.724;2023-05-19T12:03:01;100991.84;;;27.14
42673;BMP280;28284;46.514;30.724;2023-05-19T12:05:27;100981.72;;;27.11
42673;BMP280;28284;46.514;30.724;2023-05-19T12:07:53;100987.06;;;27.14
42673;BMP280;28284;46.514;30.724;2023-05-19T12:10:22;100964.88;;;27.20
42673;BMP280;28284;46.514;30.724;2023-05-19T12:12:48;100966.69;;;27.23
42673;BMP280;28284;46.514;30.724;2023-05-19T12:15:17;100968.00;;;27.27
42673;BMP280;28284;46.514;30.724;2023-05-19T12:17:42;100968.16;;;27.38
42673;BMP280;28284;46.514;30.724;2023-05-19T12:20:10;100964.03;;;27.53
42673;BMP280;28284;46.514;30.724;2023-05-19T12:22:36;100962.69;;;27.69
42673;BMP280;28284;46.514;30.724;2023-05-19T12:25:01;100962.84;;;27.85
42673;BMP280;28284;46.514;30.724;2023-05-19T12:27:29;100962.25;;;28.01
42673;BMP280;28284;46.514;30.724;2023-05-19T12:29:55;100964.63;;;28.13
42673;BMP280;28284;46.514;30.724;2023-05-19T12:32:24;100966.78;;;28.29
42673;BMP280;28284;46.514;30.724;2023-05-19T12:34:50;100963.66;;;28.47
42673;BMP280;28284;46.514;30.724;2023-05-19T12:37:15;100954.94;;;28.70
42673;BMP280;28284;46.514;30.724;2023-05-19T12:39:41;100960.41;;;28.95
42673;BMP280;28284;46.514;30.724;2023-05-19T12:42:06;100949.09;;;29.15
42673;BMP280;28284;46.514;30.724;2023-05-19T12:44:42;100951.69;;;29.29
42673;BMP280;28284;46.514;30.724;2023-05-19T12:47:07;100963.41;;;29.44
42673;BMP280;28284;46.514;30.724;2023-05-19T12:49:33;100974.84;;;29.52
42673;BMP280;28284;46.514;30.724;2023-05-19T12:52:01;100991.31;;;29.44
42673;BMP280;28284;46.514;30.724;2023-05-19T12:54:28;100997.25;;;29.05
42673;BMP280;28284;46.514;30.724;2023-05-19T12:56:57;101012.91;;;28.61
42673;BMP280;28284;46.514;30.724;2023-05-19T12:59:23;101038.00;;;28.05
42673;BMP280;28284;46.514;30.724;2023-05-19T13:01:55;101068.09;;;27.41
42673;BMP280;28284;46.514;30.724;2023-05-19T13:04:21;101061.75;;;26.58
42673;BMP280;28284;46.514;30.724;2023-05-19T13:06:46;101077.06;;;25.64
42673;BMP280;28284;46.514;30.724;2023-05-19T13:09:13;101093.34;;;23.03
42673;BMP280;28284;46.514;30.724;2023-05-19T13:11:38;101056.56;;;21.38
42673;BMP280;28284;46.514;30.724;2023-05-19T13:14:04;101035.81;;;21.21
42673;BMP280;28284;46.514;30.724;2023-05-19T13:16:30;101002.88;;;21.55
42673;BMP280;28284;46.514;30.724;2023-05-19T13:18:55;100987.88;;;22.02
42673;BMP280;28284;46.514;30.724;2023-05-19T13:21:20;101044.84;;;22.51
42673;BMP280;28284;46.514;30.724;2023-05-19T13:23:46;100978.66;;;22.90
42673;BMP280;28284;46.514;30.724;2023-05-19T13:26:11;100980.91;;;23.22
42673;BMP280;28284;46.514;30.724;2023-05-19T13:28:37;100950.28;;;23.55
42673;BMP280;28284;46.514;30.724;2023-05-19T13:31:05;100951.38;;;23.94
42673;BMP280;28284;46.514;30.724;2023-05-19T13:33:30;100950.84;;;24.31
42673;BMP280;28284;46.514;30.724;2023-05-19T13:35:56;100927.47;;;24.73
42673;BMP280;28284;46.514;30.724;2023-05-19T13:38:21;100939.88;;;25.18
42673;BMP280;28284;46.514;30.724;2023-05-19T13:40:46;100927.34;;;25.46
42673;BMP280;28284;46.514;30.724;2023-05-19T13:43:12;100927.78;;;25.68
42673;BMP280;28284;46.514;30.724;2023-05-19T13:45:37;100933.16;;;25.86
42673;BMP280;28284;46.514;30.724;2023-05-19T13:48:03;100934.53;;;26.05
42673;BMP280;28284;46.514;30.724;2023-05-19T13:50:30;100929.56;;;26.23
42673;BMP280;28284;46.514;30.724;2023-05-19T13:52:55;100928.03;;;26.36
42673;BMP280;28284;46.514;30.724;2023-05-19T13:55:21;100934.56;;;26.53
42673;BMP280;28284;46.514;30.724;2023-05-19T13:57:47;100936.94;;;26.60
42673;BMP280;28284;46.514;30.724;2023-05-19T14:00:13;100943.22;;;26.55
42673;BMP280;28284;46.514;30.724;2023-05-19T14:02:38;100947.25;;;26.40
42673;BMP280;28284;46.514;30.724;2023-05-19T14:05:04;100942.84;;;26.33
42673;BMP280;28284;46.514;30.724;2023-05-19T14:07:30;100945.56;;;26.28